Time;durP1;ratioP1;P1;durP2;ratioP2;P2;SDS_P1;SDS_P2;PMS_P1;PMS_P2;Temp;Humidity;BMP_temperature;BMP_pressure;BME280_temperature;BME280_humidity;BME280_pressure;Samples;Min_cycle;Max_cycle;Signal;HPM_P1;HPM_P2
2022/11/13 00:01:24;;;;;;;13.27;7.85;;;;;;;;;;5006787;28;20285;-78
2022/11/13 00:03:49;;;;;;;12.18;7.30;;;;;;;;;;5010657;28;20437;-81
2022/11/13 00:06:15;;;;;;;14.07;8.13;;;;;;;;;;5009062;28;20056;-85
2022/11/13 00:08:41;;;;;;;13.07;8.05;;;;;;;;;;5012148;28;20041;-83
2022/11/13 00:11:14;;;;;;;14.82;8.23;;;;;;;;;;5011038;28;20320;-83
2022/11/13 00:13:41;;;;;;;13.32;8.05;;;;;;;;;;5018211;28;20030;-80
2022/11/13 00:16:09;;;;;;;13.60;7.78;;;;;;;;;;5003851;28;20026;-73
2022/11/13 00:18:34;;;;;;;13.45;7.82;;;;;;;;;;5009128;28;20034;-72
2022/11/13 00:21:19;;;;;;;12.02;7.20;;;;;;;;;;5006113;28;20477;-74
2022/11/13 00:23:45;;;;;;;13.07;7.85;;;;;;;;;;5005184;28;20064;-73
2022/11/13 00:26:11;;;;;;;15.82;8.18;;;;;;;;;;5003959;28;20445;-70
2022/11/13 00:28:37;;;;;;;12.10;8.02;;;;;;;;;;5011648;28;20091;-70
2022/11/13 00:31:03;;;;;;;12.00;7.57;;;;;;;;;;5004400;28;20429;-73
2022/11/13 00:33:28;;;;;;;13.98;7.88;;;;;;;;;;5006552;28;20088;-69
2022/11/13 00:35:53;;;;;;;12.73;6.93;;;;;;;;;;5008271;28;20037;-73
2022/11/13 00:38:19;;;;;;;15.40;7.03;;;;;;;;;;5004857;28;20019;-64
2022/11/13 00:40:44;;;;;;;13.27;7.28;;;;;;;;;;5010602;28;20549;-67
2022/11/13 00:43:09;;;;;;;11.00;7.10;;;;;;;;;;5008708;28;20029;-71
2022/11/13 00:45:34;;;;;;;9.63;6.40;;;;;;;;;;5010238;28;20292;-69
2022/11/13 00:48:00;;;;;;;13.95;7.38;;;;;;;;;;5007448;28;20284;-69
2022/11/13 00:50:25;;;;;;;13.73;6.40;;;;;;;;;;5007387;28;20026;-67
2022/11/13 00:52:50;;;;;;;13.60;6.87;;;;;;;;;;5011226;28;20077;-70
2022/11/13 00:55:15;;;;;;;11.63;6.57;;;;;;;;;;5004958;28;20312;-71
2022/11/13 00:57:41;;;;;;;10.25;6.47;;;;;;;;;;5008321;28;20042;-75
2022/11/13 01:00:06;;;;;;;13.30;7.38;;;;;;;;;;5013294;28;20025;-75
2022/11/13 01:02:31;;;;;;;12.13;6.85;;;;;;;;;;5009931;28;20030;-78
2022/11/13 01:04:57;;;;;;;10.63;6.00;;;;;;;;;;5012381;28;20018;-77
2022/11/13 01:07:22;;;;;;;10.27;6.53;;;;;;;;;;5012184;28;20342;-77
2022/11/13 01:09:50;;;;;;;13.13;6.75;;;;;;;;;;5009260;28;20032;-77
2022/11/13 01:12:16;;;;;;;13.95;7.03;;;;;;;;;;5005602;28;20025;-69
2022/11/13 01:14:41;;;;;;;12.70;7.07;;;;;;;;;;5008324;28;20343;-72
2022/11/13 01:17:06;;;;;;;10.98;6.13;;;;;;;;;;5007234;28;20022;-71
2022/11/13 01:19:31;;;;;;;12.85;6.50;;;;;;;;;;5009051;28;20358;-71
2022/11/13 01:21:56;;;;;;;13.03;7.57;;;;;;;;;;5010213;28;20101;-73
2022/11/13 01:24:22;;;;;;;10.30;6.17;;;;;;;;;;5007785;28;20324;-74
2022/11/13 01:26:47;;;;;;;10.53;6.53;;;;;;;;;;5007749;28;20792;-71
2022/11/13 01:29:12;;;;;;;13.73;7.23;;;;;;;;;;5005815;28;20855;-71
2022/11/13 01:31:37;;;;;;;12.25;7.85;;;;;;;;;;5006544;28;20730;-77
2022/11/13 01:34:02;;;;;;;13.38;6.38;;;;;;;;;;5003596;28;20104;-70
2022/11/13 01:36:28;;;;;;;11.97;6.30;;;;;;;;;;5006347;28;20025;-70
2022/11/13 01:38:53;;;;;;;13.60;6.57;;;;;;;;;;5007980;28;20648;-70
2022/11/13 01:41:23;;;;;;;10.32;6.57;;;;;;;;;;5007772;28;20022;-70
2022/11/13 01:43:48;;;;;;;12.68;7.25;;;;;;;;;;5018927;28;20094;-71
2022/11/13 01:46:21;;;;;;;10.85;5.80;;;;;;;;;;5007237;28;20038;-70
2022/11/13 01:48:49;;;;;;;13.10;6.00;;;;;;;;;;5010437;28;20029;-79
2022/11/13 01:51:17;;;;;;;11.25;6.10;;;;;;;;;;5006913;28;20054;-74
2022/11/13 01:53:44;;;;;;;10.77;5.53;;;;;;;;;;5008228;28;20061;-75
2022/11/13 01:56:09;;;;;;;8.88;5.25;;;;;;;;;;5009355;28;20465;-75
2022/11/13 01:58:36;;;;;;;12.50;5.97;;;;;;;;;;5010320;28;20080;-77
2022/11/13 02:01:01;;;;;;;11.20;6.45;;;;;;;;;;5002308;28;20478;-75
2022/11/13 02:03:26;;;;;;;12.57;6.47;;;;;;;;;;5010197;28;20040;-75
2022/11/13 02:05:52;;;;;;;11.25;5.75;;;;;;;;;;5007287;28;20581;-75
2022/11/13 02:08:17;;;;;;;11.10;6.80;;;;;;;;;;5010885;28;20029;-67
2022/11/13 02:10:42;;;;;;;8.30;5.40;;;;;;;;;;5006033;28;20026;-77
2022/11/13 02:13:08;;;;;;;12.55;5.45;;;;;;;;;;5010258;28;20284;-75
2022/11/13 02:15:34;;;;;;;11.48;6.07;;;;;;;;;;5007726;28;20061;-76
2022/11/13 02:17:59;;;;;;;12.02;6.32;;;;;;;;;;5006942;28;20053;-74
2022/11/13 02:20:45;;;;;;;9.70;5.82;;;;;;;;;;5007947;28;20381;-76
2022/11/13 02:23:10;;;;;;;9.07;5.35;;;;;;;;;;5007783;28;20080;-76
2022/11/13 02:25:36;;;;;;;8.67;5.50;;;;;;;;;;5006917;28;20033;-71
2022/11/13 02:28:01;;;;;;;8.40;5.03;;;;;;;;;;5009563;28;20464;-71
2022/11/13 02:30:27;;;;;;;7.63;5.00;;;;;;;;;;5006614;28;20116;-73
2022/11/13 02:32:53;;;;;;;8.60;5.22;;;;;;;;;;5005969;28;20284;-70
2022/11/13 02:35:21;;;;;;;8.55;4.90;;;;;;;;;;5006222;28;20026;-69
2022/11/13 02:37:46;;;;;;;9.75;4.95;;;;;;;;;;5004288;28;20085;-71
2022/11/13 02:40:11;;;;;;;11.00;5.80;;;;;;;;;;5009522;28;20060;-72
2022/11/13 02:42:36;;;;;;;10.20;5.13;;;;;;;;;;5006388;28;20044;-70
2022/11/13 02:45:02;;;;;;;10.13;5.70;;;;;;;;;;5006984;28;20500;-72
2022/11/13 02:47:28;;;;;;;8.23;4.68;;;;;;;;;;5021710;28;20809;-73
2022/11/13 02:49:53;;;;;;;8.27;4.82;;;;;;;;;;5008977;28;20473;-74
2022/11/13 02:52:18;;;;;;;10.87;5.23;;;;;;;;;;5006692;28;20026;-73
2022/11/13 02:54:44;;;;;;;8.13;5.85;;;;;;;;;;5004360;28;20289;-72
2022/11/13 02:57:09;;;;;;;9.70;5.72;;;;;;;;;;5006906;28;20038;-72
2022/11/13 02:59:34;;;;;;;10.75;5.68;;;;;;;;;;5008358;28;20045;-72
2022/11/13 03:01:59;;;;;;;9.20;4.93;;;;;;;;;;5007765;28;20369;-74
2022/11/13 03:04:24;;;;;;;8.27;5.32;;;;;;;;;;5008943;28;20898;-69
2022/11/13 03:06:50;;;;;;;8.27;5.38;;;;;;;;;;5008560;28;20026;-71
2022/11/13 03:09:15;;;;;;;8.80;5.33;;;;;;;;;;5006305;28;20481;-70
2022/11/13 03:11:41;;;;;;;9.53;5.93;;;;;;;;;;5005708;28;20285;-70
2022/11/13 03:14:07;;;;;;;8.27;5.15;;;;;;;;;;5003085;28;20375;-71
2022/11/13 03:16:33;;;;;;;8.53;5.17;;;;;;;;;;5007524;28;20108;-71
2022/11/13 03:18:58;;;;;;;10.27;5.43;;;;;;;;;;5005984;28;20288;-70
2022/11/13 03:21:23;;;;;;;8.80;4.53;;;;;;;;;;5009794;28;20025;-71
2022/11/13 03:23:49;;;;;;;13.70;7.10;;;;;;;;;;5004930;28;20049;-66
2022/11/13 03:26:15;;;;;;;10.10;5.37;;;;;;;;;;5006296;28;20285;-68
2022/11/13 03:28:41;;;;;;;11.07;4.82;;;;;;;;;;5001487;28;20408;-69
2022/11/13 03:31:06;;;;;;;7.03;4.82;;;;;;;;;;5004087;28;20654;-68
2022/11/13 03:33:31;;;;;;;9.35;4.53;;;;;;;;;;5007054;28;20414;-67
2022/11/13 03:35:57;;;;;;;10.57;5.07;;;;;;;;;;5007994;28;20131;-70
2022/11/13 03:38:22;;;;;;;8.23;4.75;;;;;;;;;;5008499;28;20022;-71
2022/11/13 03:40:48;;;;;;;7.90;4.80;;;;;;;;;;5005667;28;20042;-74
2022/11/13 03:43:13;;;;;;;7.20;4.55;;;;;;;;;;4998209;28;20041;-72
2022/11/13 03:45:38;;;;;;;8.02;4.82;;;;;;;;;;5006450;28;20080;-68
2022/11/13 03:48:04;;;;;;;8.45;4.95;;;;;;;;;;5007225;28;20061;-67
2022/11/13 03:50:29;;;;;;;9.52;5.03;;;;;;;;;;5006345;28;20428;-65
2022/11/13 03:52:54;;;;;;;8.13;4.78;;;;;;;;;;5005711;28;20053;-66
2022/11/13 03:55:19;;;;;;;8.40;5.05;;;;;;;;;;5007269;28;20033;-66
2022/11/13 03:57:45;;;;;;;7.87;5.17;;;;;;;;;;5006137;28;20066;-73
2022/11/13 04:00:11;;;;;;;8.82;4.93;;;;;;;;;;5004720;28;20284;-71
2022/11/13 04:02:36;;;;;;;10.20;5.53;;;;;;;;;;5005657;28;20112;-72
2022/11/13 04:05:01;;;;;;;9.43;5.40;;;;;;;;;;5007099;28;20028;-71
2022/11/13 04:07:26;;;;;;;11.50;5.23;;;;;;;;;;5007095;28;20323;-71
2022/11/13 04:09:51;;;;;;;7.00;4.73;;;;;;;;;;5006416;28;20321;-71
2022/11/13 04:12:17;;;;;;;7.40;4.73;;;;;;;;;;5004552;28;21201;-70
2022/11/13 04:14:42;;;;;;;8.23;5.17;;;;;;;;;;5005683;28;20772;-70
2022/11/13 04:17:07;;;;;;;10.10;4.88;;;;;;;;;;5007365;28;20276;-82
2022/11/13 04:19:32;;;;;;;9.90;5.15;;;;;;;;;;5006209;28;20061;-78
2022/11/13 04:21:57;;;;;;;7.47;5.00;;;;;;;;;;5006379;28;20377;-79
2022/11/13 04:24:23;;;;;;;7.57;4.77;;;;;;;;;;5003773;28;20274;-76
2022/11/13 04:26:48;;;;;;;7.80;4.90;;;;;;;;;;5008347;28;20281;-78
2022/11/13 04:29:13;;;;;;;12.25;5.20;;;;;;;;;;5011772;28;20806;-79
2022/11/13 04:31:38;;;;;;;7.77;4.73;;;;;;;;;;5008629;28;20416;-78
2022/11/13 04:34:04;;;;;;;8.95;5.25;;;;;;;;;;5009603;28;20632;-74
2022/11/13 04:36:29;;;;;;;8.20;4.77;;;;;;;;;;5007005;28;20022;-72
2022/11/13 04:38:54;;;;;;;9.50;4.57;;;;;;;;;;5011512;28;20273;-70
2022/11/13 04:44:03;;;;;;;11.00;5.10;;;;;;;;;;5009140;28;20387;-70
2022/11/13 04:46:28;;;;;;;7.43;4.90;;;;;;;;;;5007701;28;20157;-70
2022/11/13 04:48:53;;;;;;;9.07;4.90;;;;;;;;;;5012725;28;20463;-69
2022/11/13 04:51:19;;;;;;;8.10;4.73;;;;;;;;;;5008161;28;20288;-71
2022/11/13 04:53:44;;;;;;;9.77;5.30;;;;;;;;;;5009745;28;20288;-71
2022/11/13 04:56:09;;;;;;;9.73;5.57;;;;;;;;;;5012074;28;20026;-73
2022/11/13 04:58:34;;;;;;;8.70;5.20;;;;;;;;;;5008657;28;20293;-74
2022/11/13 05:00:59;;;;;;;10.47;6.00;;;;;;;;;;5006353;28;20280;-69
2022/11/13 05:03:25;;;;;;;10.48;4.97;;;;;;;;;;5009416;28;20292;-69
2022/11/13 05:05:50;;;;;;;12.47;6.43;;;;;;;;;;5011469;28;20425;-70
2022/11/13 05:08:15;;;;;;;9.60;5.53;;;;;;;;;;5010067;28;20847;-68
2022/11/13 05:10:40;;;;;;;11.23;6.10;;;;;;;;;;5009370;28;20281;-73
2022/11/13 05:13:06;;;;;;;12.10;6.43;;;;;;;;;;5005537;28;20022;-66
2022/11/13 05:15:31;;;;;;;12.07;6.90;;;;;;;;;;5008599;28;20034;-71
2022/11/13 05:17:56;;;;;;;14.23;7.43;;;;;;;;;;5008800;28;20362;-73
2022/11/13 05:20:21;;;;;;;13.55;6.63;;;;;;;;;;5008727;28;20335;-71
2022/11/13 05:22:46;;;;;;;14.50;7.43;;;;;;;;;;5009377;28;21555;-71
2022/11/13 05:25:12;;;;;;;11.67;5.93;;;;;;;;;;5011489;28;20684;-71
2022/11/13 05:27:37;;;;;;;10.07;5.13;;;;;;;;;;5005886;28;20775;-70
2022/11/13 05:30:02;;;;;;;10.97;5.40;;;;;;;;;;5007666;28;20617;-69
2022/11/13 05:32:27;;;;;;;8.00;4.82;;;;;;;;;;5010592;28;20660;-72
2022/11/13 05:34:53;;;;;;;9.07;4.70;;;;;;;;;;5009722;28;20025;-73
2022/11/13 05:37:18;;;;;;;8.85;4.55;;;;;;;;;;5010008;28;20334;-71
2022/11/13 05:39:43;;;;;;;7.43;4.80;;;;;;;;;;5004652;28;20445;-71
2022/11/13 05:42:08;;;;;;;9.40;4.83;;;;;;;;;;5009729;28;20776;-72
2022/11/13 05:44:34;;;;;;;8.85;5.22;;;;;;;;;;5001308;28;20763;-70
2022/11/13 05:46:59;;;;;;;7.75;4.88;;;;;;;;;;5006511;28;20456;-70
2022/11/13 05:49:24;;;;;;;8.80;5.40;;;;;;;;;;5006383;28;20030;-67
2022/11/13 05:51:49;;;;;;;8.07;5.60;;;;;;;;;;5009882;28;20481;-71
2022/11/13 05:54:15;;;;;;;9.63;5.43;;;;;;;;;;5009691;28;20787;-71
2022/11/13 05:56:40;;;;;;;8.05;4.88;;;;;;;;;;5010707;28;20304;-72
2022/11/13 05:59:05;;;;;;;8.80;5.10;;;;;;;;;;5009023;28;20022;-72
2022/11/13 06:01:30;;;;;;;9.15;5.70;;;;;;;;;;5010425;28;20022;-71
2022/11/13 06:03:56;;;;;;;9.68;4.75;;;;;;;;;;5009142;28;20034;-77
2022/11/13 06:06:22;;;;;;;11.15;4.38;;;;;;;;;;5011138;28;20480;-66
2022/11/13 06:08:48;;;;;;;9.55;4.60;;;;;;;;;;5009464;28;20469;-73
2022/11/13 06:11:14;;;;;;;10.93;5.03;;;;;;;;;;5008892;28;20472;-72
2022/11/13 06:13:40;;;;;;;7.97;5.07;;;;;;;;;;5006476;28;20113;-71
2022/11/13 06:16:10;;;;;;;8.07;4.80;;;;;;;;;;5004276;28;20176;-72
2022/11/13 06:18:35;;;;;;;9.93;6.10;;;;;;;;;;5009423;28;20018;-74
2022/11/13 06:21:05;;;;;;;9.73;5.32;;;;;;;;;;5008414;28;20041;-71
2022/11/13 06:23:30;;;;;;;;;;;;;;;;;;5010095;28;20030;-70
2022/11/13 06:25:59;;;;;;;8.35;4.68;;;;;;;;;;5009658;28;19925;-75
2022/11/13 06:28:24;;;;;;;8.90;4.72;;;;;;;;;;5008459;28;20026;-65
2022/11/13 06:30:49;;;;;;;12.10;6.70;;;;;;;;;;5003865;28;20051;-66
2022/11/13 06:33:15;;;;;;;8.75;5.68;;;;;;;;;;5010382;28;20269;-65
2022/11/13 06:35:40;;;;;;;9.10;5.55;;;;;;;;;;5008790;28;20026;-67
2022/11/13 06:38:05;;;;;;;10.60;6.13;;;;;;;;;;5010561;28;20076;-65
2022/11/13 06:40:30;;;;;;;11.67;6.43;;;;;;;;;;5010237;28;20022;-65
2022/11/13 06:42:55;;;;;;;14.17;7.67;;;;;;;;;;5008815;28;20289;-67
2022/11/13 06:45:21;;;;;;;12.85;6.75;;;;;;;;;;5009485;28;20420;-66
2022/11/13 06:47:46;;;;;;;10.43;6.00;;;;;;;;;;5004213;28;20046;-70
2022/11/13 06:50:11;;;;;;;13.48;7.38;;;;;;;;;;5008546;28;20375;-71
2022/11/13 06:52:36;;;;;;;13.02;7.50;;;;;;;;;;5007455;28;20033;-72
2022/11/13 06:55:02;;;;;;;11.63;6.37;;;;;;;;;;5008365;28;20362;-75
2022/11/13 06:57:27;;;;;;;11.88;7.28;;;;;;;;;;5007874;28;20756;-73
2022/11/13 06:59:52;;;;;;;14.35;7.30;;;;;;;;;;5008316;28;20117;-74
2022/11/13 07:02:17;;;;;;;12.10;6.80;;;;;;;;;;5005606;28;20051;-66
2022/11/13 07:04:43;;;;;;;11.00;6.82;;;;;;;;;;5004793;28;20293;-71
2022/11/13 07:07:08;;;;;;;13.03;7.37;;;;;;;;;;5009501;28;20034;-72
2022/11/13 07:09:33;;;;;;;13.50;6.60;;;;;;;;;;5009399;28;20300;-71
2022/11/13 07:11:58;;;;;;;9.90;5.87;;;;;;;;;;5006038;28;20874;-71
2022/11/13 07:14:23;;;;;;;11.87;7.27;;;;;;;;;;5004816;28;20306;-70
2022/11/13 07:16:49;;;;;;;12.20;6.93;;;;;;;;;;5007567;28;20284;-71
2022/11/13 07:19:14;;;;;;;13.70;6.63;;;;;;;;;;5008974;28;20280;-72
2022/11/13 07:21:39;;;;;;;10.10;6.03;;;;;;;;;;5011054;28;20388;-71
2022/11/13 07:24:05;;;;;;;9.30;5.37;;;;;;;;;;5009185;28;20041;-68
2022/11/13 07:26:30;;;;;;;10.40;6.07;;;;;;;;;;5010588;28;20308;-68
2022/11/13 07:28:55;;;;;;;9.88;6.07;;;;;;;;;;5003107;28;20148;-67
2022/11/13 07:31:21;;;;;;;10.77;7.05;;;;;;;;;;5008728;28;20025;-67
2022/11/13 07:33:47;;;;;;;11.57;6.47;;;;;;;;;;5009074;28;20037;-65
2022/11/13 07:36:13;;;;;;;10.98;6.75;;;;;;;;;;5010221;28;20129;-66
2022/11/13 07:38:38;;;;;;;10.93;6.32;;;;;;;;;;5002763;28;20125;-77
2022/11/13 07:41:04;;;;;;;11.47;6.07;;;;;;;;;;5005290;28;20049;-72
2022/11/13 07:43:29;;;;;;;11.38;6.80;;;;;;;;;;5007857;28;20272;-73
2022/11/13 07:45:56;;;;;;;13.13;7.28;;;;;;;;;;5009559;28;20076;-73
2022/11/13 07:48:22;;;;;;;9.52;6.15;;;;;;;;;;5007165;28;20032;-73
2022/11/13 07:50:48;;;;;;;10.90;6.30;;;;;;;;;;5002234;28;20038;-73
2022/11/13 07:53:13;;;;;;;12.13;6.28;;;;;;;;;;5007707;28;20096;-73
2022/11/13 07:55:38;;;;;;;11.50;7.07;;;;;;;;;;5010042;28;20037;-75
2022/11/13 07:58:04;;;;;;;14.48;7.40;;;;;;;;;;5007639;28;20464;-73
2022/11/13 08:00:29;;;;;;;11.38;6.82;;;;;;;;;;5010725;28;20021;-73
2022/11/13 08:02:55;;;;;;;11.98;7.20;;;;;;;;;;5010743;28;20529;-71
2022/11/13 08:05:20;;;;;;;11.88;7.97;;;;;;;;;;5012274;28;20473;-71
2022/11/13 08:07:50;;;;;;;12.90;8.13;;;;;;;;;;5011264;28;20057;-71
2022/11/13 08:10:15;;;;;;;14.18;7.47;;;;;;;;;;5023323;28;20026;-69
2022/11/13 08:12:41;;;;;;;14.68;8.18;;;;;;;;;;5008505;28;20125;-72
2022/11/13 08:15:06;;;;;;;15.15;7.50;;;;;;;;;;5012980;28;20472;-68
2022/11/13 08:17:31;;;;;;;14.30;8.05;;;;;;;;;;5011185;28;20032;-73
2022/11/13 08:19:56;;;;;;;12.77;7.47;;;;;;;;;;5010054;28;20022;-73
2022/11/13 08:22:22;;;;;;;11.53;7.13;;;;;;;;;;5006888;28;20276;-70
2022/11/13 08:24:47;;;;;;;12.90;8.27;;;;;;;;;;5006895;28;20772;-69
2022/11/13 08:27:12;;;;;;;14.63;7.70;;;;;;;;;;5007179;28;20272;-76
2022/11/13 08:29:37;;;;;;;13.03;7.20;;;;;;;;;;5003945;28;20324;-75
2022/11/13 08:32:03;;;;;;;13.63;8.23;;;;;;;;;;5009117;28;20391;-76
2022/11/13 08:34:28;;;;;;;11.98;7.82;;;;;;;;;;5011461;28;20034;-64
2022/11/13 08:36:53;;;;;;;14.35;7.70;;;;;;;;;;5005708;28;20105;-68
2022/11/13 08:39:18;;;;;;;12.97;8.23;;;;;;;;;;5010029;28;20064;-71
2022/11/13 08:41:44;;;;;;;12.77;7.00;;;;;;;;;;5007834;28;20557;-68
2022/11/13 08:44:11;;;;;;;12.73;7.60;;;;;;;;;;5008798;28;21397;-71
2022/11/13 08:46:36;;;;;;;11.38;7.60;;;;;;;;;;5007768;28;20276;-73
2022/11/13 08:49:01;;;;;;;10.87;7.83;;;;;;;;;;5009652;28;20083;-68
2022/11/13 08:51:27;;;;;;;10.87;7.13;;;;;;;;;;5009811;28;20678;-67
2022/11/13 08:53:52;;;;;;;8.93;6.60;;;;;;;;;;5007744;28;20636;-68
2022/11/13 08:56:18;;;;;;;11.17;8.13;;;;;;;;;;5008686;28;20771;-68
2022/11/13 08:58:44;;;;;;;12.35;7.72;;;;;;;;;;5008203;28;20490;-66
2022/11/13 09:01:09;;;;;;;10.27;7.30;;;;;;;;;;5007742;28;20372;-67
2022/11/13 09:03:35;;;;;;;12.60;6.68;;;;;;;;;;5009887;28;20791;-67
2022/11/13 09:06:03;;;;;;;11.63;7.40;;;;;;;;;;5006542;28;20030;-70
2022/11/13 09:08:29;;;;;;;11.38;7.22;;;;;;;;;;5006593;28;20164;-67
2022/11/13 09:10:54;;;;;;;11.45;7.40;;;;;;;;;;5009667;28;20126;-70
2022/11/13 09:13:19;;;;;;;10.70;7.27;;;;;;;;;;5004512;28;20061;-73
2022/11/13 09:15:45;;;;;;;9.77;6.80;;;;;;;;;;5008203;28;20427;-74
2022/11/13 09:18:10;;;;;;;11.27;7.43;;;;;;;;;;5003589;28;20572;-72
2022/11/13 09:20:35;;;;;;;12.70;7.43;;;;;;;;;;5004614;28;20755;-74
2022/11/13 09:23:02;;;;;;;11.25;7.18;;;;;;;;;;5001432;28;20289;-75
2022/11/13 09:25:27;;;;;;;11.32;7.38;;;;;;;;;;5006454;28;20029;-75
2022/11/13 09:27:54;;;;;;;10.80;7.05;;;;;;;;;;5001840;28;20108;-66
2022/11/13 09:30:19;;;;;;;9.77;6.95;;;;;;;;;;5004035;28;20030;-64
2022/11/13 09:32:44;;;;;;;10.75;6.97;;;;;;;;;;5002071;28;20040;-65
2022/11/13 09:35:10;;;;;;;11.40;7.78;;;;;;;;;;5007967;28;20037;-62
2022/11/13 09:37:35;;;;;;;13.10;7.40;;;;;;;;;;5002960;28;20038;-66
2022/11/13 09:40:00;;;;;;;11.07;7.43;;;;;;;;;;5005746;28;20301;-64
2022/11/13 09:42:27;;;;;;;11.27;7.93;;;;;;;;;;5005958;28;20026;-66
2022/11/13 09:44:54;;;;;;;13.27;7.25;;;;;;;;;;5009256;28;20058;-62
2022/11/13 09:47:26;;;;;;;10.45;7.07;;;;;;;;;;5007927;28;20032;-71
2022/11/13 09:49:53;;;;;;;12.48;8.95;;;;;;;;;;5006510;28;20688;-66
2022/11/13 09:52:27;;;;;;;10.23;7.45;;;;;;;;;;5005806;28;20499;-71
2022/11/13 09:54:52;;;;;;;13.82;8.70;;;;;;;;;;5003313;28;20037;-68
2022/11/13 09:57:34;;;;;;;11.27;7.72;;;;;;;;;;5005856;28;20026;-74
2022/11/13 10:00:04;;;;;;;10.27;6.82;;;;;;;;;;5005527;28;20026;-67
2022/11/13 10:02:42;;;;;;;10.95;7.80;;;;;;;;;;5001743;28;20080;-71
2022/11/13 10:05:19;;;;;;;10.88;7.90;;;;;;;;;;5004152;28;20025;-70
2022/11/13 10:08:03;;;;;;;11.35;7.72;;;;;;;;;;5005561;28;20045;-64
2022/11/13 10:10:36;;;;;;;12.52;7.80;;;;;;;;;;5003205;28;20089;-82
2022/11/13 10:13:01;;;;;;;10.85;8.20;;;;;;;;;;5000920;28;20082;-79
2022/11/13 10:15:26;;;;;;;10.95;7.22;;;;;;;;;;5004415;28;20476;-73
2022/11/13 10:18:02;;;;;;;11.50;7.87;;;;;;;;;;5004758;28;20143;-75
2022/11/13 10:20:33;;;;;;;11.27;7.05;;;;;;;;;;5003958;28;20444;-74
2022/11/13 10:23:05;;;;;;;12.00;6.85;;;;;;;;;;5005847;28;20532;-71
2022/11/13 10:25:32;;;;;;;9.98;6.93;;;;;;;;;;5005760;28;20041;-71
2022/11/13 10:27:59;;;;;;;9.52;6.97;;;;;;;;;;5005796;28;20037;-67
2022/11/13 10:30:25;;;;;;;10.20;6.93;;;;;;;;;;5003500;28;20038;-67
2022/11/13 10:32:51;;;;;;;9.52;6.78;;;;;;;;;;5005211;28;20037;-65
2022/11/13 10:35:30;;;;;;;8.40;6.35;;;;;;;;;;4997003;28;20018;-68
2022/11/13 10:38:14;;;;;;;8.48;6.57;;;;;;;;;;5001752;28;20038;-68
2022/11/13 10:40:39;;;;;;;10.13;7.15;;;;;;;;;;5006180;28;20069;-68
2022/11/13 10:43:04;;;;;;;11.27;7.78;;;;;;;;;;5005868;28;20421;-71
2022/11/13 10:45:29;;;;;;;9.03;6.23;;;;;;;;;;5004255;28;20037;-73
2022/11/13 10:47:55;;;;;;;9.10;6.40;;;;;;;;;;5004454;28;20061;-73
2022/11/13 10:50:21;;;;;;;9.40;6.50;;;;;;;;;;5004116;28;20304;-74
2022/11/13 10:52:47;;;;;;;7.85;5.88;;;;;;;;;;5004113;28;20755;-78
2022/11/13 10:55:36;;;;;;;8.18;5.88;;;;;;;;;;5003391;28;20397;-76
2022/11/13 10:58:10;;;;;;;11.00;6.97;;;;;;;;;;5003671;28;20029;-75
2022/11/13 11:00:37;;;;;;;9.52;6.78;;;;;;;;;;5002529;28;20113;-70
2022/11/13 11:03:02;;;;;;;8.98;5.90;;;;;;;;;;5002811;28;20029;-67
2022/11/13 11:05:28;;;;;;;9.25;6.32;;;;;;;;;;5003702;28;20034;-69
2022/11/13 11:07:54;;;;;;;9.20;6.38;;;;;;;;;;5002621;28;20040;-70
2022/11/13 11:10:19;;;;;;;9.60;6.47;;;;;;;;;;5003565;28;20037;-70
2022/11/13 11:12:50;;;;;;;16.57;10.07;;;;;;;;;;5002615;28;20272;-69
2022/11/13 11:15:21;;;;;;;9.13;6.53;;;;;;;;;;5003623;28;20412;-68
2022/11/13 11:17:52;;;;;;;9.50;6.97;;;;;;;;;;5003357;28;20030;-67
2022/11/13 11:20:36;;;;;;;9.73;6.53;;;;;;;;;;5006301;28;20081;-78
2022/11/13 11:23:06;;;;;;;12.07;6.68;;;;;;;;;;5003170;28;20026;-71
2022/11/13 11:25:31;;;;;;;12.43;7.57;;;;;;;;;;5005302;28;20072;-71
2022/11/13 11:28:16;;;;;;;9.15;5.85;;;;;;;;;;5001058;28;20453;-73
2022/11/13 11:30:46;;;;;;;10.52;7.18;;;;;;;;;;5004728;28;20058;-61
2022/11/13 11:33:18;;;;;;;11.32;6.30;;;;;;;;;;5000455;28;20367;-62
2022/11/13 11:35:58;;;;;;;11.55;7.07;;;;;;;;;;5009043;28;20117;-61
2022/11/13 11:38:23;;;;;;;;;;;;;;;;;;5007858;28;20497;-68
2022/11/13 11:40:51;;;;;;;11.30;6.88;;;;;;;;;;5010885;28;20368;-73
2022/11/13 11:43:35;;;;;;;9.65;6.55;;;;;;;;;;5010109;28;20029;-73
2022/11/13 11:46:00;;;;;;;10.65;7.18;;;;;;;;;;5008985;28;20076;-72
2022/11/13 11:48:26;;;;;;;10.90;7.23;;;;;;;;;;5009129;28;20477;-84
2022/11/13 11:51:10;;;;;;;10.57;7.10;;;;;;;;;;5011733;28;20765;-76
2022/11/13 11:53:55;;;;;;;10.60;7.28;;;;;;;;;;5008687;28;20504;-77
2022/11/13 11:56:25;;;;;;;10.15;7.43;;;;;;;;;;5011479;28;20120;-73
2022/11/13 11:59:09;;;;;;;10.48;7.18;;;;;;;;;;5004687;28;20033;-69
2022/11/13 12:01:46;;;;;;;11.82;7.10;;;;;;;;;;5001993;28;20053;-68
2022/11/13 12:04:29;;;;;;;9.32;6.55;;;;;;;;;;5001594;28;20033;-70
2022/11/13 12:07:09;;;;;;;15.05;8.88;;;;;;;;;;5007089;28;20044;-73
2022/11/13 12:09:42;;;;;;;10.48;7.55;;;;;;;;;;5007094;28;20124;-68
2022/11/13 12:12:07;;;;;;;9.93;7.05;;;;;;;;;;5004856;28;20034;-63
2022/11/13 12:14:51;;;;;;;10.20;7.33;;;;;;;;;;5006362;28;20773;-66
2022/11/13 12:17:26;;;;;;;10.73;7.45;;;;;;;;;;5008799;28;20338;-73
2022/11/13 12:19:55;;;;;;;10.45;7.00;;;;;;;;;;5009398;28;20149;-66
2022/11/13 12:22:20;;;;;;;10.30;7.15;;;;;;;;;;5004421;28;20088;-71
2022/11/13 12:25:04;;;;;;;9.57;6.83;;;;;;;;;;5006110;28;20364;-75
2022/11/13 12:27:30;;;;;;;10.52;6.72;;;;;;;;;;5003299;28;20281;-73
2022/11/13 12:30:15;;;;;;;10.37;7.07;;;;;;;;;;5007294;28;20388;-68
2022/11/13 12:32:43;;;;;;;10.80;6.93;;;;;;;;;;5008670;28;20033;-72
2022/11/13 12:35:12;;;;;;;10.85;7.30;;;;;;;;;;5005894;28;20037;-68
2022/11/13 12:37:43;;;;;;;10.93;7.38;;;;;;;;;;5003655;28;20416;-68
2022/11/13 12:40:26;;;;;;;10.40;7.00;;;;;;;;;;5002941;28;20376;-68
2022/11/13 12:43:10;;;;;;;12.25;7.55;;;;;;;;;;5004938;28;20441;-66
2022/11/13 12:45:36;;;;;;;13.38;7.82;;;;;;;;;;5006326;28;20028;-64
2022/11/13 12:48:27;;;;;;;13.17;9.03;;;;;;;;;;5004734;28;20406;-79
2022/11/13 12:51:00;;;;;;;12.50;7.88;;;;;;;;;;5003807;28;20083;-70
2022/11/13 12:53:30;;;;;;;11.65;7.78;;;;;;;;;;5009337;28;20499;-75
2022/11/13 12:56:00;;;;;;;11.40;7.78;;;;;;;;;;5011738;28;20034;-74
2022/11/13 12:58:26;;;;;;;;;;;;;;;;;;5006812;28;20377;-78
2022/11/13 13:00:56;;;;;;;13.18;7.15;;;;;;;;;;5010494;28;19920;-75
2022/11/13 13:03:40;;;;;;;11.35;7.20;;;;;;;;;;5012310;28;20477;-76
2022/11/13 13:06:12;;;;;;;9.70;6.68;;;;;;;;;;5011409;28;20507;-77
2022/11/13 13:08:56;;;;;;;11.98;7.05;;;;;;;;;;5010033;28;20026;-73
2022/11/13 13:11:27;;;;;;;11.48;7.63;;;;;;;;;;5011737;28;20030;-75
2022/11/13 13:13:52;;;;;;;10.95;7.50;;;;;;;;;;5007949;28;20107;-75
2022/11/13 13:16:22;;;;;;;10.83;7.47;;;;;;;;;;5012035;28;20481;-74
2022/11/13 13:18:47;;;;;;;10.60;7.40;;;;;;;;;;5012593;28;20026;-75
2022/11/13 13:21:15;;;;;;;10.82;6.85;;;;;;;;;;5010810;28;20488;-73
2022/11/13 13:23:42;;;;;;;11.70;7.60;;;;;;;;;;5013227;28;20034;-74
2022/11/13 13:26:16;;;;;;;12.68;7.70;;;;;;;;;;5011628;28;20030;-73
2022/11/13 13:28:44;;;;;;;12.50;8.07;;;;;;;;;;5010717;28;20029;-73
2022/11/13 13:31:22;;;;;;;12.02;8.07;;;;;;;;;;5011076;28;20030;-74
2022/11/13 13:34:17;;;;;;;12.52;8.30;;;;;;;;;;5024012;28;20087;-76
2022/11/13 13:36:50;;;;;;;11.98;7.70;;;;;;;;;;4972590;28;20407;-76
2022/11/13 13:39:15;;;;;;;13.13;8.50;;;;;;;;;;5003375;28;20029;-76
2022/11/13 13:41:40;;;;;;;16.60;8.95;;;;;;;;;;4999584;28;20076;-78
2022/11/13 13:44:05;;;;;;;11.33;7.87;;;;;;;;;;5006323;28;20116;-76
2022/11/13 13:46:32;;;;;;;14.57;8.57;;;;;;;;;;5008910;28;20316;-73
2022/11/13 13:49:02;;;;;;;10.82;7.28;;;;;;;;;;5010189;28;20464;-67
2022/11/13 13:51:30;;;;;;;13.73;8.70;;;;;;;;;;5006589;28;20042;-67
2022/11/13 13:53:57;;;;;;;11.82;8.48;;;;;;;;;;5009684;28;20064;-67
2022/11/13 13:56:22;;;;;;;14.15;8.25;;;;;;;;;;5012920;28;20537;-67
2022/11/13 13:58:48;;;;;;;12.60;7.78;;;;;;;;;;5007902;28;20120;-67
2022/11/13 14:01:14;;;;;;;10.98;7.53;;;;;;;;;;5007856;28;20030;-68
2022/11/13 14:03:39;;;;;;;13.02;7.78;;;;;;;;;;5011242;28;20037;-70
2022/11/13 14:06:17;;;;;;;12.32;6.47;;;;;;;;;;5012135;28;20030;-75
2022/11/13 14:08:43;;;;;;;13.32;7.70;;;;;;;;;;5008814;28;20034;-74
2022/11/13 14:11:19;;;;;;;12.60;7.70;;;;;;;;;;5007025;28;20153;-73
2022/11/13 14:13:44;;;;;;;15.95;6.88;;;;;;;;;;5003954;28;20071;-74
2022/11/13 14:16:10;;;;;;;10.60;6.88;;;;;;;;;;5009158;28;20796;-74
2022/11/13 14:18:35;;;;;;;11.13;6.85;;;;;;;;;;5008977;28;20544;-73
2022/11/13 14:21:02;;;;;;;11.70;6.93;;;;;;;;;;5008982;28;20083;-74
2022/11/13 14:23:30;;;;;;;12.75;7.10;;;;;;;;;;5011058;28;20037;-81
2022/11/13 14:25:55;;;;;;;13.30;8.02;;;;;;;;;;5010787;28;20030;-74
2022/11/13 14:28:23;;;;;;;12.23;7.55;;;;;;;;;;5009480;28;20034;-73
2022/11/13 14:30:55;;;;;;;11.57;7.50;;;;;;;;;;5009492;28;20073;-76
2022/11/13 14:33:22;;;;;;;12.80;8.07;;;;;;;;;;5008830;28;20045;-74
2022/11/13 14:35:53;;;;;;;13.90;7.40;;;;;;;;;;5010381;28;20041;-73
2022/11/13 14:38:20;;;;;;;15.07;7.38;;;;;;;;;;5017350;28;20015;-74
2022/11/13 14:40:46;;;;;;;10.52;7.20;;;;;;;;;;5009263;28;20026;-75